Time;durP1;ratioP1;P1;durP2;ratioP2;P2;SDS_P1;SDS_P2;PMS_P1;PMS_P2;Temp;Humidity;BMP_temperature;BMP_pressure;BME280_temperature;BME280_humidity;BME280_pressure;Samples;Min_cycle;Max_cycle;Signal;HPM_P1;HPM_P2
2021/08/06 00:01:11;;;;;;;9.30;8.40;;;;;;;;;;4983863;28;24426;-51
2021/08/06 00:03:37;;;;;;;11.68;10.70;;;;;;;;;;4983451;28;24840;-51
2021/08/06 00:06:02;;;;;;;10.70;9.90;;;;;;;;;;4982949;28;24995;-51
2021/08/06 00:08:27;;;;;;;11.55;10.65;;;;;;;;;;4987987;28;25026;-51
2021/08/06 00:10:53;;;;;;;11.30;10.30;;;;;;;;;;4981511;28;24959;-52
2021/08/06 00:13:18;;;;;;;11.27;10.37;;;;;;;;;;4988822;28;24405;-51
2021/08/06 00:15:43;;;;;;;12.57;11.67;;;;;;;;;;4988677;28;24883;-51
2021/08/06 00:18:08;;;;;;;13.50;12.50;;;;;;;;;;4978951;28;24777;-52
2021/08/06 00:20:35;;;;;;;11.30;10.30;;;;;;;;;;4984378;28;24413;-51
2021/08/06 00:23:00;;;;;;;12.15;11.15;;;;;;;;;;4982808;28;25245;-51
2021/08/06 00:25:25;;;;;;;11.32;10.40;;;;;;;;;;4988362;28;24417;-50
2021/08/06 00:27:51;;;;;;;10.88;9.98;;;;;;;;;;4973081;28;24780;-50
2021/08/06 00:30:16;;;;;;;12.27;11.27;;;;;;;;;;4985077;28;24509;-51
2021/08/06 00:32:41;;;;;;;11.32;10.32;;;;;;;;;;4987391;28;24501;-51
2021/08/06 00:35:06;;;;;;;11.97;10.97;;;;;;;;;;4985645;28;24797;-52
2021/08/06 00:37:32;;;;;;;11.93;11.03;;;;;;;;;;4986208;28;24962;-52
2021/08/06 00:39:57;;;;;;;11.40;10.50;;;;;;;;;;4974060;28;24484;-51
2021/08/06 00:42:22;;;;;;;12.27;11.27;;;;;;;;;;4988921;28;24981;-50
2021/08/06 00:44:47;;;;;;;12.80;11.70;;;;;;;;;;4982452;28;24555;-51
2021/08/06 00:47:12;;;;;;;12.10;11.20;;;;;;;;;;4969940;28;24390;-51
2021/08/06 00:49:38;;;;;;;10.73;9.93;;;;;;;;;;4987319;28;24488;-50
2021/08/06 00:52:03;;;;;;;10.43;9.70;;;;;;;;;;4983464;28;24442;-51
2021/08/06 00:54:28;;;;;;;11.07;10.27;;;;;;;;;;4986121;28;24441;-51
2021/08/06 00:56:54;;;;;;;10.17;9.37;;;;;;;;;;4987519;28;25089;-51
2021/08/06 00:59:19;;;;;;;9.03;8.23;;;;;;;;;;4988084;28;24429;-51
2021/08/06 01:01:46;;;;;;;8.55;7.95;;;;;;;;;;4985829;28;24417;-51
2021/08/06 01:04:15;;;;;;;8.10;7.60;;;;;;;;;;4986754;28;24468;-52
2021/08/06 01:06:47;;;;;;;7.90;7.40;;;;;;;;;;4986835;28;24409;-52
2021/08/06 01:09:30;;;;;;;9.38;8.57;;;;;;;;;;4979320;28;25171;-52
2021/08/06 01:11:56;;;;;;;8.50;7.90;;;;;;;;;;4976398;28;25100;-52
2021/08/06 01:14:25;;;;;;;9.13;8.52;;;;;;;;;;4971930;28;24789;-52
2021/08/06 01:16:51;;;;;;;8.90;8.20;;;;;;;;;;4985749;28;24535;-52
2021/08/06 01:19:24;;;;;;;8.10;7.50;;;;;;;;;;4985876;28;24505;-52
2021/08/06 01:21:50;;;;;;;7.70;7.20;;;;;;;;;;4974798;28;24502;-52
2021/08/06 01:24:17;;;;;;;7.15;6.65;;;;;;;;;;4976914;28;24421;-51
2021/08/06 01:26:44;;;;;;;8.90;8.10;;;;;;;;;;4986981;28;24428;-51
2021/08/06 01:29:09;;;;;;;6.50;6.10;;;;;;;;;;4971010;28;24437;-51
2021/08/06 01:31:35;;;;;;;7.20;6.70;;;;;;;;;;4984510;28;24961;-52
2021/08/06 01:34:00;;;;;;;6.90;6.40;;;;;;;;;;4983902;28;24460;-51
2021/08/06 01:36:25;;;;;;;6.70;6.20;;;;;;;;;;4986082;28;24464;-50
2021/08/06 01:38:51;;;;;;;7.47;6.87;;;;;;;;;;4988337;28;24500;-51
2021/08/06 01:41:55;;;;;;;6.70;6.30;;;;;;;;;;4987412;28;24490;-52
2021/08/06 01:44:23;;;;;;;7.00;6.50;;;;;;;;;;4908301;29;24474;-51
2021/08/06 01:46:53;;;;;;;5.78;5.47;;;;;;;;;;4907947;29;24463;-51
2021/08/06 01:49:34;;;;;;;6.63;6.13;;;;;;;;;;4952227;28;24437;-51
2021/08/06 01:52:11;;;;;;;7.05;6.45;;;;;;;;;;4982281;28;24433;-55
2021/08/06 01:54:37;;;;;;;6.78;6.28;;;;;;;;;;4982289;28;24479;-51
2021/08/06 01:57:03;;;;;;;6.20;5.80;;;;;;;;;;4991449;28;24420;-51
2021/08/06 01:59:29;;;;;;;6.35;5.75;;;;;;;;;;4987536;28;24400;-50
2021/08/06 02:01:55;;;;;;;5.80;5.50;;;;;;;;;;4990726;28;24417;-51
2021/08/06 02:04:20;;;;;;;5.95;5.55;;;;;;;;;;4979863;28;24555;-50
2021/08/06 02:06:45;;;;;;;6.20;5.80;;;;;;;;;;4990408;28;24476;-54
2021/08/06 02:09:14;;;;;;;5.57;5.17;;;;;;;;;;4983864;28;24884;-51
2021/08/06 02:11:39;;;;;;;5.60;5.20;;;;;;;;;;4990892;28;24444;-51
2021/08/06 02:14:06;;;;;;;5.80;5.50;;;;;;;;;;4990964;28;24413;-51
2021/08/06 02:16:31;;;;;;;5.32;4.93;;;;;;;;;;4989209;28;24416;-51
2021/08/06 02:18:57;;;;;;;5.50;5.20;;;;;;;;;;4984094;28;24799;-50
2021/08/06 02:21:27;;;;;;;5.45;5.15;;;;;;;;;;4974783;28;24428;-51
2021/08/06 02:23:54;;;;;;;6.13;5.63;;;;;;;;;;4986141;28;24464;-51
2021/08/06 02:26:20;;;;;;;5.80;5.30;;;;;;;;;;4985483;28;24504;-51
2021/08/06 02:28:46;;;;;;;5.93;5.53;;;;;;;;;;4990507;28;24524;-51
2021/08/06 02:31:12;;;;;;;6.40;6.00;;;;;;;;;;4990654;28;24459;-50
2021/08/06 02:33:38;;;;;;;6.53;6.13;;;;;;;;;;4986520;28;24493;-50
2021/08/06 02:36:03;;;;;;;6.77;6.37;;;;;;;;;;4989674;28;25010;-51
2021/08/06 02:38:28;;;;;;;6.70;6.30;;;;;;;;;;4985642;28;24487;-50
2021/08/06 02:40:54;;;;;;;6.60;6.20;;;;;;;;;;4979111;28;24863;-49
2021/08/06 02:43:19;;;;;;;7.90;7.40;;;;;;;;;;4986863;28;24967;-50
2021/08/06 02:45:50;;;;;;;7.37;6.90;;;;;;;;;;4990369;28;24632;-51
2021/08/06 02:48:16;;;;;;;8.30;7.70;;;;;;;;;;4985184;28;24440;-51
2021/08/06 02:50:41;;;;;;;7.18;6.68;;;;;;;;;;4986515;28;24467;-51
2021/08/06 02:53:06;;;;;;;6.70;6.10;;;;;;;;;;4984665;28;24433;-50
2021/08/06 02:55:31;;;;;;;6.55;6.15;;;;;;;;;;4990025;28;24440;-50
2021/08/06 02:57:56;;;;;;;6.72;6.32;;;;;;;;;;4987813;28;24441;-50
2021/08/06 03:00:21;;;;;;;6.10;5.70;;;;;;;;;;4986992;28;24421;-50
2021/08/06 03:02:46;;;;;;;5.77;5.47;;;;;;;;;;4975334;28;24409;-50
2021/08/06 03:05:12;;;;;;;6.10;5.70;;;;;;;;;;4990572;28;24780;-51
2021/08/06 03:07:37;;;;;;;5.70;5.30;;;;;;;;;;4989694;28;24510;-51
2021/08/06 03:10:05;;;;;;;6.30;5.90;;;;;;;;;;4973010;28;24418;-50
2021/08/06 03:12:31;;;;;;;5.90;5.50;;;;;;;;;;4986301;28;24421;-50
2021/08/06 03:14:56;;;;;;;6.60;6.10;;;;;;;;;;4977443;28;24439;-51
2021/08/06 03:17:21;;;;;;;6.72;6.22;;;;;;;;;;4987510;28;24959;-50
2021/08/06 03:19:46;;;;;;;8.57;7.97;;;;;;;;;;4988755;28;24514;-51
2021/08/06 03:22:11;;;;;;;8.07;7.47;;;;;;;;;;4990398;28;24779;-51
2021/08/06 03:24:37;;;;;;;6.50;6.10;;;;;;;;;;4989530;28;24775;-50
2021/08/06 03:27:02;;;;;;;8.15;7.55;;;;;;;;;;4989641;28;24420;-53
2021/08/06 03:29:27;;;;;;;7.40;6.90;;;;;;;;;;4979273;28;24449;-52
2021/08/06 03:31:52;;;;;;;7.22;6.70;;;;;;;;;;4987437;28;24967;-51
2021/08/06 03:34:17;;;;;;;6.20;5.80;;;;;;;;;;4985117;28;24989;-52
2021/08/06 03:36:42;;;;;;;6.10;5.70;;;;;;;;;;4989233;28;24418;-51
2021/08/06 03:39:08;;;;;;;6.80;6.30;;;;;;;;;;4984153;28;24421;-53
2021/08/06 03:41:33;;;;;;;6.70;6.30;;;;;;;;;;4979961;28;24423;-52
2021/08/06 03:43:59;;;;;;;6.97;6.57;;;;;;;;;;4986986;28;24507;-52
2021/08/06 03:46:24;;;;;;;6.38;6.00;;;;;;;;;;4989913;28;24455;-50
2021/08/06 03:48:49;;;;;;;6.70;6.30;;;;;;;;;;4976563;28;25007;-52
2021/08/06 03:51:15;;;;;;;6.18;5.70;;;;;;;;;;4975856;28;24425;-50
2021/08/06 03:53:40;;;;;;;6.40;6.00;;;;;;;;;;4976510;28;24441;-51
2021/08/06 03:56:05;;;;;;;6.00;5.70;;;;;;;;;;4971333;28;24553;-52
2021/08/06 03:58:30;;;;;;;6.37;6.00;;;;;;;;;;4988522;28;24416;-52
2021/08/06 04:00:56;;;;;;;6.30;5.90;;;;;;;;;;4987608;28;24420;-52
2021/08/06 04:03:21;;;;;;;6.28;5.88;;;;;;;;;;4989822;28;24429;-50
2021/08/06 04:05:46;;;;;;;6.93;6.43;;;;;;;;;;4986739;28;24420;-50
2021/08/06 04:08:11;;;;;;;6.65;6.25;;;;;;;;;;4987683;28;25060;-50
2021/08/06 04:10:36;;;;;;;7.20;6.80;;;;;;;;;;4973576;28;24420;-50
2021/08/06 04:13:02;;;;;;;6.17;5.77;;;;;;;;;;4970243;28;24402;-52
2021/08/06 04:15:27;;;;;;;7.23;6.83;;;;;;;;;;4971295;28;24500;-52
2021/08/06 04:17:52;;;;;;;7.10;6.60;;;;;;;;;;4984314;28;24444;-52
2021/08/06 04:20:17;;;;;;;6.30;5.90;;;;;;;;;;4986610;28;24484;-52
2021/08/06 04:22:43;;;;;;;6.70;6.30;;;;;;;;;;4984460;28;24500;-52
2021/08/06 04:25:09;;;;;;;7.35;6.85;;;;;;;;;;4978495;28;25002;-50
2021/08/06 04:27:34;;;;;;;7.40;6.80;;;;;;;;;;4985892;28;24500;-52
2021/08/06 04:29:59;;;;;;;5.50;5.20;;;;;;;;;;4977348;28;24959;-50
2021/08/06 04:32:24;;;;;;;5.50;5.10;;;;;;;;;;4973352;28;24409;-50
2021/08/06 04:34:49;;;;;;;5.93;5.55;;;;;;;;;;4981355;28;24409;-52
2021/08/06 04:37:14;;;;;;;6.28;5.88;;;;;;;;;;4987045;28;24978;-51
2021/08/06 04:39:39;;;;;;;6.28;5.88;;;;;;;;;;4979175;28;24517;-52
2021/08/06 04:42:05;;;;;;;5.90;5.50;;;;;;;;;;4974762;28;24418;-52
2021/08/06 04:44:34;;;;;;;4.93;4.63;;;;;;;;;;4982550;28;24412;-51
2021/08/06 04:46:59;;;;;;;5.50;5.10;;;;;;;;;;4971951;28;24856;-52
2021/08/06 04:49:24;;;;;;;4.88;4.57;;;;;;;;;;4988344;28;24419;-54
2021/08/06 04:51:49;;;;;;;4.80;4.40;;;;;;;;;;4976276;28;24421;-53
2021/08/06 04:54:15;;;;;;;4.07;3.88;;;;;;;;;;4980693;28;24430;-52
2021/08/06 04:56:40;;;;;;;4.40;4.10;;;;;;;;;;4984669;28;24420;-53
2021/08/06 04:59:05;;;;;;;3.90;3.60;;;;;;;;;;4988118;28;24447;-54
2021/08/06 05:01:31;;;;;;;5.85;5.05;;;;;;;;;;4978634;28;24412;-53
2021/08/06 05:03:56;;;;;;;4.30;4.00;;;;;;;;;;4975271;28;25042;-52
2021/08/06 05:06:21;;;;;;;4.00;3.80;;;;;;;;;;4985149;28;24464;-53
2021/08/06 05:08:49;;;;;;;3.63;3.43;;;;;;;;;;4987762;28;24982;-52
2021/08/06 05:11:14;;;;;;;5.00;4.70;;;;;;;;;;4987998;28;25072;-52
2021/08/06 05:13:39;;;;;;;5.00;4.70;;;;;;;;;;4987531;28;24662;-53
2021/08/06 05:16:04;;;;;;;5.32;5.03;;;;;;;;;;4986705;28;24381;-52
2021/08/06 05:18:30;;;;;;;4.82;4.53;;;;;;;;;;4979486;28;24431;-52
2021/08/06 05:20:55;;;;;;;4.38;4.18;;;;;;;;;;4979226;28;24885;-53
2021/08/06 05:23:20;;;;;;;5.03;4.72;;;;;;;;;;4975054;28;24420;-51
2021/08/06 05:25:45;;;;;;;5.30;4.90;;;;;;;;;;4973859;28;24453;-53
2021/08/06 05:28:10;;;;;;;5.10;4.80;;;;;;;;;;4986830;28;24432;-52
2021/08/06 05:30:35;;;;;;;5.30;5.00;;;;;;;;;;4986518;28;24484;-51
2021/08/06 05:33:00;;;;;;;5.00;4.70;;;;;;;;;;4981204;28;25049;-52
2021/08/06 05:35:26;;;;;;;5.67;5.27;;;;;;;;;;4981225;28;24449;-52
2021/08/06 05:37:51;;;;;;;5.70;5.20;;;;;;;;;;4981048;28;24772;-52
2021/08/06 05:40:16;;;;;;;5.97;5.57;;;;;;;;;;4976496;28;24516;-52
2021/08/06 05:42:41;;;;;;;5.50;5.20;;;;;;;;;;4978422;28;24426;-50
2021/08/06 05:45:07;;;;;;;5.83;5.43;;;;;;;;;;4987076;28;24859;-51
2021/08/06 05:47:42;;;;;;;5.10;4.70;;;;;;;;;;4987449;28;24517;-50
2021/08/06 05:50:08;;;;;;;4.60;4.30;;;;;;;;;;4987304;28;24423;-50
2021/08/06 05:52:33;;;;;;;4.60;4.30;;;;;;;;;;4985738;28;24537;-51
2021/08/06 05:54:58;;;;;;;3.75;3.55;;;;;;;;;;4985560;28;24508;-51
2021/08/06 05:57:23;;;;;;;3.90;3.70;;;;;;;;;;4979754;28;25331;-51
2021/08/06 05:59:49;;;;;;;3.90;3.60;;;;;;;;;;4972521;28;24820;-51
2021/08/06 06:02:14;;;;;;;3.90;3.50;;;;;;;;;;4974978;28;24410;-51
2021/08/06 06:04:39;;;;;;;5.00;3.80;;;;;;;;;;4973082;28;24428;-51
2021/08/06 06:07:04;;;;;;;3.70;3.40;;;;;;;;;;4983514;28;24475;-52
2021/08/06 06:09:29;;;;;;;3.50;3.20;;;;;;;;;;4968094;28;25236;-53
2021/08/06 06:11:54;;;;;;;4.07;3.78;;;;;;;;;;4977405;28;25033;-52
2021/08/06 06:14:20;;;;;;;3.80;3.50;;;;;;;;;;4983931;28;24413;-52
2021/08/06 06:16:45;;;;;;;3.78;3.47;;;;;;;;;;4976751;28;24441;-52
2021/08/06 06:19:10;;;;;;;4.20;3.70;;;;;;;;;;4984275;28;25096;-52
2021/08/06 06:21:35;;;;;;;3.60;3.40;;;;;;;;;;4984743;28;24522;-52
2021/08/06 06:24:00;;;;;;;4.22;3.83;;;;;;;;;;4983963;28;25226;-51
2021/08/06 06:26:25;;;;;;;5.57;5.17;;;;;;;;;;4979765;28;24420;-52
2021/08/06 06:28:51;;;;;;;5.90;5.30;;;;;;;;;;4973452;28;24831;-51
2021/08/06 06:31:16;;;;;;;4.80;4.50;;;;;;;;;;4978299;28;24508;-51
2021/08/06 06:33:41;;;;;;;5.30;4.90;;;;;;;;;;4987853;28;24440;-51
2021/08/06 06:36:06;;;;;;;5.43;5.13;;;;;;;;;;4980247;28;24502;-54
2021/08/06 06:38:31;;;;;;;5.13;4.83;;;;;;;;;;4984255;28;24436;-51
2021/08/06 06:40:57;;;;;;;4.90;4.60;;;;;;;;;;4978203;28;24453;-51
2021/08/06 06:43:22;;;;;;;5.00;4.70;;;;;;;;;;4976463;28;24524;-52
2021/08/06 06:45:48;;;;;;;4.70;4.40;;;;;;;;;;4979359;28;24424;-52
2021/08/06 06:48:13;;;;;;;4.90;4.60;;;;;;;;;;4986391;28;24520;-51
2021/08/06 06:50:39;;;;;;;4.40;4.10;;;;;;;;;;4986320;28;25430;-50
2021/08/06 06:53:04;;;;;;;4.70;4.40;;;;;;;;;;4986852;28;24436;-51
2021/08/06 06:55:29;;;;;;;4.20;3.90;;;;;;;;;;4986611;28;24662;-51
2021/08/06 06:57:58;;;;;;;4.10;3.90;;;;;;;;;;4980368;28;24428;-51
2021/08/06 07:00:27;;;;;;;4.70;4.40;;;;;;;;;;4986090;28;24981;-51
2021/08/06 07:02:52;;;;;;;4.20;4.00;;;;;;;;;;4987259;28;24436;-52
2021/08/06 07:05:18;;;;;;;5.40;5.00;;;;;;;;;;4988940;28;24433;-52
2021/08/06 07:07:43;;;;;;;5.50;5.10;;;;;;;;;;4972123;28;24523;-52
2021/08/06 07:10:09;;;;;;;5.43;5.03;;;;;;;;;;4978990;28;24421;-52
2021/08/06 07:12:35;;;;;;;4.70;4.40;;;;;;;;;;4972719;28;24481;-52
2021/08/06 07:15:03;;;;;;;4.17;3.87;;;;;;;;;;4982864;28;24764;-53
2021/08/06 07:17:28;;;;;;;5.00;4.70;;;;;;;;;;4989310;28;24417;-52
2021/08/06 07:19:53;;;;;;;4.90;4.50;;;;;;;;;;4989891;28;24974;-53
2021/08/06 07:22:19;;;;;;;5.85;5.45;;;;;;;;;;4989660;28;24448;-53
2021/08/06 07:24:44;;;;;;;4.90;4.60;;;;;;;;;;4989308;28;24943;-53
2021/08/06 07:27:09;;;;;;;5.22;4.93;;;;;;;;;;4986196;28;24496;-52
2021/08/06 07:29:34;;;;;;;5.35;4.95;;;;;;;;;;4974562;28;24566;-53
2021/08/06 07:31:59;;;;;;;4.90;4.60;;;;;;;;;;4990175;28;24381;-51
2021/08/06 07:34:24;;;;;;;5.30;4.80;;;;;;;;;;4988318;28;24528;-52
2021/08/06 07:36:49;;;;;;;4.78;4.47;;;;;;;;;;4990088;28;25001;-52
2021/08/06 07:39:15;;;;;;;4.40;4.10;;;;;;;;;;4987175;28;24440;-52
2021/08/06 07:41:40;;;;;;;3.90;3.70;;;;;;;;;;4989364;28;24440;-51
2021/08/06 07:44:05;;;;;;;4.97;4.57;;;;;;;;;;4989106;28;24536;-53
2021/08/06 07:46:30;;;;;;;4.40;4.00;;;;;;;;;;4989613;28;24447;-52
2021/08/06 07:48:55;;;;;;;4.17;3.87;;;;;;;;;;4986117;28;24412;-51
2021/08/06 07:51:20;;;;;;;3.50;3.30;;;;;;;;;;4989426;28;24459;-52
2021/08/06 07:53:46;;;;;;;3.70;3.50;;;;;;;;;;4988984;28;24429;-52
2021/08/06 07:56:13;;;;;;;3.93;3.73;;;;;;;;;;4988978;28;24967;-51
2021/08/06 07:58:38;;;;;;;3.40;3.20;;;;;;;;;;4988909;28;24740;-52
2021/08/06 08:01:03;;;;;;;3.70;3.50;;;;;;;;;;4988417;28;24982;-51
2021/08/06 08:03:29;;;;;;;4.40;4.20;;;;;;;;;;4989163;28;24548;-52
2021/08/06 08:05:54;;;;;;;3.93;3.73;;;;;;;;;;4989128;28;24994;-51
2021/08/06 08:08:19;;;;;;;4.10;3.90;;;;;;;;;;4988869;28;24421;-51
2021/08/06 08:10:44;;;;;;;4.15;3.85;;;;;;;;;;4988457;28;24420;-51
2021/08/06 08:13:09;;;;;;;4.00;3.70;;;;;;;;;;4988051;28;24424;-51
2021/08/06 08:15:34;;;;;;;3.90;3.70;;;;;;;;;;4989059;28;24462;-51
2021/08/06 08:18:00;;;;;;;4.60;4.30;;;;;;;;;;4988693;28;24432;-51
2021/08/06 08:20:25;;;;;;;4.40;4.10;;;;;;;;;;4988467;28;24443;-52
2021/08/06 08:22:50;;;;;;;4.10;3.80;;;;;;;;;;4988744;28;24413;-52
2021/08/06 08:25:15;;;;;;;4.00;3.80;;;;;;;;;;4988306;28;24548;-50
2021/08/06 08:27:40;;;;;;;4.13;3.83;;;;;;;;;;4989565;28;24444;-52
2021/08/06 08:30:07;;;;;;;4.00;3.80;;;;;;;;;;4989570;28;24417;-52
2021/08/06 08:32:32;;;;;;;4.20;3.90;;;;;;;;;;4987429;28;24641;-52
2021/08/06 08:34:57;;;;;;;5.25;4.85;;;;;;;;;;4988035;28;25239;-52
2021/08/06 08:37:23;;;;;;;5.43;5.03;;;;;;;;;;4988230;28;24409;-52
2021/08/06 08:39:48;;;;;;;4.90;4.60;;;;;;;;;;4987912;28;25014;-52
2021/08/06 08:42:14;;;;;;;4.50;4.20;;;;;;;;;;4986187;28;24424;-52
2021/08/06 08:44:40;;;;;;;5.43;5.03;;;;;;;;;;4985546;28;24500;-52
2021/08/06 08:47:06;;;;;;;6.40;5.90;;;;;;;;;;4985395;28;24536;-51
2021/08/06 08:49:32;;;;;;;5.80;5.40;;;;;;;;;;4986958;28;24444;-52
2021/08/06 08:51:58;;;;;;;5.30;4.80;;;;;;;;;;4986333;28;24433;-52
2021/08/06 08:54:23;;;;;;;4.20;4.00;;;;;;;;;;4985346;28;24456;-52
2021/08/06 08:56:48;;;;;;;3.83;3.63;;;;;;;;;;4985776;28;24422;-51
2021/08/06 08:59:13;;;;;;;4.10;3.90;;;;;;;;;;4987104;28;24523;-51
2021/08/06 09:01:39;;;;;;;3.55;3.35;;;;;;;;;;4988399;28;24413;-52
2021/08/06 09:04:21;;;;;;;4.28;4.07;;;;;;;;;;4987312;28;24429;-52
2021/08/06 09:06:47;;;;;;;4.15;3.85;;;;;;;;;;4986177;28;24429;-51
2021/08/06 09:09:14;;;;;;;3.80;3.60;;;;;;;;;;4983100;28;24480;-50
2021/08/06 09:11:39;;;;;;;3.83;3.63;;;;;;;;;;4988282;28;24514;-50
2021/08/06 09:14:18;;;;;;;3.80;3.50;;;;;;;;;;4986486;28;25038;-51
2021/08/06 09:17:00;;;;;;;4.05;3.80;;;;;;;;;;4987981;28;24415;-51
2021/08/06 09:19:27;;;;;;;3.60;3.40;;;;;;;;;;4984105;28;24432;-51
2021/08/06 09:21:52;;;;;;;3.23;3.03;;;;;;;;;;4987505;28;24417;-51
2021/08/06 09:24:17;;;;;;;3.30;3.10;;;;;;;;;;4987696;28;24874;-52
2021/08/06 09:26:44;;;;;;;3.77;3.57;;;;;;;;;;4987707;28;24424;-51
2021/08/06 09:29:12;;;;;;;3.90;3.60;;;;;;;;;;4986002;28;24444;-51
2021/08/06 09:31:42;;;;;;;4.10;3.90;;;;;;;;;;4986802;28;24618;-51
2021/08/06 09:34:21;;;;;;;4.00;3.70;;;;;;;;;;4988020;28;24433;-51
2021/08/06 09:37:12;;;;;;;3.70;3.50;;;;;;;;;;4987260;28;24740;-50
2021/08/06 09:39:42;;;;;;;3.63;3.42;;;;;;;;;;4986578;28;24525;-51
2021/08/06 09:42:14;;;;;;;3.50;3.30;;;;;;;;;;4986249;28;24433;-52
2021/08/06 09:44:39;;;;;;;3.50;3.30;;;;;;;;;;4988081;28;24518;-51
2021/08/06 09:47:18;;;;;;;3.20;3.00;;;;;;;;;;4985115;28;25004;-53
2021/08/06 09:49:44;;;;;;;3.43;3.13;;;;;;;;;;4987315;28;25021;-52
2021/08/06 09:52:10;;;;;;;3.13;3.00;;;;;;;;;;4987398;28;24420;-52
2021/08/06 09:54:35;;;;;;;3.70;3.50;;;;;;;;;;4985461;28;24931;-52
2021/08/06 09:57:05;;;;;;;3.63;3.20;;;;;;;;;;4987891;28;24471;-52
2021/08/06 09:59:30;;;;;;;3.70;3.50;;;;;;;;;;4984847;28;24642;-52
2021/08/06 10:02:12;;;;;;;4.05;3.25;;;;;;;;;;4985820;28;24520;-52
2021/08/06 10:04:37;;;;;;;3.40;3.20;;;;;;;;;;4971183;28;24382;-52
2021/08/06 10:07:03;;;;;;;3.40;3.20;;;;;;;;;;4991223;28;25033;-52
2021/08/06 10:09:28;;;;;;;3.20;3.00;;;;;;;;;;4988656;28;24436;-52
2021/08/06 10:11:53;;;;;;;3.40;3.20;;;;;;;;;;4990128;28;24421;-53
2021/08/06 10:14:19;;;;;;;3.70;3.40;;;;;;;;;;4990326;28;24425;-52
2021/08/06 10:16:44;;;;;;;3.10;2.90;;;;;;;;;;4990993;28;24458;-52
2021/08/06 10:19:09;;;;;;;3.40;3.20;;;;;;;;;;4990973;28;24416;-52
2021/08/06 10:21:35;;;;;;;2.80;2.70;;;;;;;;;;4996085;28;24989;-52
2021/08/06 10:24:00;;;;;;;2.90;2.80;;;;;;;;;;4993982;28;24524;-51
2021/08/06 10:26:25;;;;;;;3.60;3.40;;;;;;;;;;4990842;28;24593;-52
2021/08/06 10:28:50;;;;;;;3.60;3.40;;;;;;;;;;4988890;28;24475;-52
2021/08/06 10:31:22;;;;;;;3.23;3.03;;;;;;;;;;4989474;28;24435;-51
2021/08/06 10:34:07;;;;;;;3.35;3.15;;;;;;;;;;4988928;28;24421;-52
2021/08/06 10:36:45;;;;;;;3.50;3.30;;;;;;;;;;4975494;28;24859;-51
2021/08/06 10:39:25;;;;;;;3.10;3.00;;;;;;;;;;4990783;28;24514;-51
2021/08/06 10:41:51;;;;;;;3.40;3.10;;;;;;;;;;4988215;28;25785;-51
2021/08/06 10:44:16;;;;;;;3.58;3.38;;;;;;;;;;4987832;28;24421;-52
2021/08/06 10:46:49;;;;;;;3.10;2.90;;;;;;;;;;4990790;28;24451;-52
2021/08/06 10:49:14;;;;;;;3.50;3.30;;;;;;;;;;4990548;28;24495;-51
2021/08/06 10:51:39;;;;;;;3.20;3.00;;;;;;;;;;4990383;28;24469;-52
2021/08/06 10:54:04;;;;;;;3.45;3.25;;;;;;;;;;4990206;28;24499;-51
2021/08/06 10:56:30;;;;;;;3.10;3.00;;;;;;;;;;4990448;28;24990;-51
2021/08/06 10:58:56;;;;;;;3.20;3.00;;;;;;;;;;4990273;28;24393;-52
2021/08/06 11:01:28;;;;;;;3.00;2.80;;;;;;;;;;4989674;28;24768;-53
2021/08/06 11:03:54;;;;;;;3.00;2.90;;;;;;;;;;4989434;28;24500;-52
2021/08/06 11:06:34;;;;;;;3.40;3.20;;;;;;;;;;4990419;28;24401;-53
2021/08/06 11:09:00;;;;;;;3.95;3.65;;;;;;;;;;4989741;28;24447;-53
2021/08/06 11:11:41;;;;;;;3.38;3.17;;;;;;;;;;4989832;28;24792;-52
2021/08/06 11:14:06;;;;;;;3.13;2.93;;;;;;;;;;4990063;28;25004;-52
2021/08/06 11:16:31;;;;;;;3.43;3.23;;;;;;;;;;4985437;28;25006;-51
2021/08/06 11:18:56;;;;;;;3.80;3.50;;;;;;;;;;4989787;28;24412;-51
2021/08/06 11:21:22;;;;;;;3.90;3.70;;;;;;;;;;4989518;28;24416;-52
2021/08/06 11:23:57;;;;;;;4.00;3.80;;;;;;;;;;4989665;28;24409;-53
2021/08/06 11:26:25;;;;;;;4.10;3.78;;;;;;;;;;4988277;28;24527;-52
2021/08/06 11:28:50;;;;;;;3.70;3.50;;;;;;;;;;4989449;28;24971;-53
2021/08/06 11:31:16;;;;;;;3.60;3.40;;;;;;;;;;4989268;28;24432;-52
2021/08/06 11:33:41;;;;;;;3.58;3.38;;;;;;;;;;4989208;28;24483;-52
2021/08/06 11:36:16;;;;;;;4.20;3.90;;;;;;;;;;4988978;28;24456;-53
2021/08/06 11:38:41;;;;;;;3.90;3.70;;;;;;;;;;4989180;28;24508;-53
2021/08/06 11:41:07;;;;;;;3.90;3.70;;;;;;;;;;4988955;28;24516;-53
2021/08/06 11:43:34;;;;;;;3.57;3.37;;;;;;;;;;4989124;28;24431;-52
2021/08/06 11:46:10;;;;;;;6.90;6.40;;;;;;;;;;4989498;28;24495;-53
2021/08/06 11:48:48;;;;;;;10.57;9.77;;;;;;;;;;4988122;28;25009;-53
2021/08/06 11:51:13;;;;;;;10.67;9.77;;;;;;;;;;4969655;28;24477;-53
2021/08/06 11:53:38;;;;;;;11.48;10.57;;;;;;;;;;4985742;28;24441;-52
2021/08/06 11:56:11;;;;;;;11.40;10.30;;;;;;;;;;4989021;28;24500;-52
2021/08/06 11:58:37;;;;;;;11.10;10.20;;;;;;;;;;4988733;28;24413;-52
2021/08/06 12:01:03;;;;;;;9.60;8.90;;;;;;;;;;4986306;28;24508;-51
2021/08/06 12:03:29;;;;;;;11.35;10.45;;;;;;;;;;4969341;28;24410;-52
2021/08/06 12:06:00;;;;;;;11.40;10.30;;;;;;;;;;4988866;28;24420;-53
2021/08/06 12:08:27;;;;;;;12.00;11.10;;;;;;;;;;4988580;28;25026;-53
2021/08/06 12:10:55;;;;;;;13.23;12.13;;;;;;;;;;4985559;28;24484;-53
2021/08/06 12:13:23;;;;;;;13.38;12.27;;;;;;;;;;4988532;28;24416;-53
2021/08/06 12:15:58;;;;;;;12.80;11.80;;;;;;;;;;4988855;28;24390;-54
2021/08/06 12:18:23;;;;;;;12.60;11.60;;;;;;;;;;4987361;28;25082;-53
2021/08/06 12:20:51;;;;;;;14.70;13.60;;;;;;;;;;4988281;28;24413;-53
2021/08/06 12:23:18;;;;;;;14.20;13.20;;;;;;;;;;4988723;28;24848;-52
2021/08/06 12:26:01;;;;;;;16.83;15.53;;;;;;;;;;4988092;28;24428;-52
2021/08/06 12:28:26;;;;;;;15.37;14.27;;;;;;;;;;4986777;28;24520;-52
2021/08/06 12:31:05;;;;;;;16.58;15.38;;;;;;;;;;4985595;28;24508;-52
2021/08/06 12:33:30;;;;;;;17.08;15.88;;;;;;;;;;4988240;28;24505;-52
2021/08/06 12:36:06;;;;;;;17.17;15.97;;;;;;;;;;4988259;28;24882;-53
2021/08/06 12:38:32;;;;;;;15.70;14.50;;;;;;;;;;4988422;28;25009;-52
2021/08/06 12:40:59;;;;;;;14.93;13.82;;;;;;;;;;4988643;28;24404;-52
2021/08/06 12:43:24;;;;;;;12.85;11.95;;;;;;;;;;4988042;28;24417;-52
2021/08/06 12:46:08;;;;;;;10.75;9.95;;;;;;;;;;4986428;28;24415;-50
2021/08/06 12:48:34;;;;;;;9.15;8.55;;;;;;;;;;4986134;28;24476;-52
2021/08/06 12:51:15;;;;;;;9.93;9.23;;;;;;;;;;4986921;28;24425;-51
2021/08/06 12:53:40;;;;;;;9.88;9.18;;;;;;;;;;4988053;28;25017;-52
2021/08/06 12:56:06;;;;;;;11.07;10.27;;;;;;;;;;4988471;28;24397;-53
2021/08/06 12:58:31;;;;;;;11.00;10.20;;;;;;;;;;4988322;28;24927;-52
2021/08/06 13:00:58;;;;;;;9.50;8.80;;;;;;;;;;4985538;28;24420;-52
2021/08/06 13:03:24;;;;;;;9.63;8.93;;;;;;;;;;4984232;28;24452;-52
2021/08/06 13:05:49;;;;;;;9.68;8.98;;;;;;;;;;4984821;28;24599;-52
2021/08/06 13:08:21;;;;;;;8.90;8.20;;;;;;;;;;4985826;28;24475;-52
2021/08/06 13:10:48;;;;;;;8.50;7.90;;;;;;;;;;4983664;28;24832;-52
2021/08/06 13:13:14;;;;;;;7.32;6.82;;;;;;;;;;4985841;28;24428;-52
2021/08/06 13:15:39;;;;;;;7.40;6.80;;;;;;;;;;4987867;28;24462;-52
2021/08/06 13:18:05;;;;;;;5.80;5.40;;;;;;;;;;4985769;28;24533;-52
2021/08/06 13:20:30;;;;;;;5.80;5.40;;;;;;;;;;4987423;28;24654;-53
2021/08/06 13:22:55;;;;;;;6.13;5.73;;;;;;;;;;4987848;28;24412;-52
2021/08/06 13:25:20;;;;;;;5.05;4.70;;;;;;;;;;4987427;28;24524;-52
2021/08/06 13:27:46;;;;;;;5.53;5.20;;;;;;;;;;4987722;28;24416;-51
2021/08/06 13:30:12;;;;;;;5.30;4.95;;;;;;;;;;4984773;28;24483;-51
2021/08/06 13:32:37;;;;;;;5.30;4.90;;;;;;;;;;4986852;28;24981;-52
2021/08/06 13:35:04;;;;;;;4.53;4.23;;;;;;;;;;4987808;28;24413;-51
2021/08/06 13:37:29;;;;;;;5.00;4.70;;;;;;;;;;4986748;28;24448;-52
2021/08/06 13:39:54;;;;;;;5.00;4.60;;;;;;;;;;4989012;28;24796;-52
2021/08/06 13:42:20;;;;;;;5.40;5.10;;;;;;;;;;4991521;28;25018;-51
2021/08/06 13:44:45;;;;;;;5.15;4.85;;;;;;;;;;4991026;28;25025;-52
2021/08/06 13:47:11;;;;;;;4.30;4.00;;;;;;;;;;4991865;28;24429;-51
2021/08/06 13:49:36;;;;;;;4.10;3.90;;;;;;;;;;4991358;28;24456;-51
2021/08/06 13:52:01;;;;;;;4.60;4.30;;;;;;;;;;4990847;28;24515;-52
2021/08/06 13:54:27;;;;;;;4.90;4.60;;;;;;;;;;4991478;28;24424;-51
2021/08/06 13:56:52;;;;;;;5.55;5.15;;;;;;;;;;4990693;28;24405;-50
2021/08/06 13:59:19;;;;;;;5.53;5.13;;;;;;;;;;4991491;28;24472;-51
2021/08/06 14:01:44;;;;;;;5.07;4.68;;;;;;;;;;4991390;28;24404;-52
2021/08/06 14:04:10;;;;;;;5.00;4.70;;;;;;;;;;4991363;28;24424;-51
2021/08/06 14:06:35;;;;;;;5.25;4.85;;;;;;;;;;4991323;28;24519;-51
2021/08/06 14:09:00;;;;;;;6.50;6.00;;;;;;;;;;4991423;28;24413;-51
2021/08/06 14:11:25;;;;;;;6.50;6.10;;;;;;;;;;4991142;28;24980;-52
2021/08/06 14:13:50;;;;;;;6.83;6.33;;;;;;;;;;4991226;28;24413;-52
2021/08/06 14:16:15;;;;;;;6.30;5.90;;;;;;;;;;4991424;28;24451;-51
2021/08/06 14:18:40;;;;;;;7.83;7.23;;;;;;;;;;4991313;28;24397;-50
2021/08/06 14:21:06;;;;;;;6.75;6.25;;;;;;;;;;4991161;28;24385;-52
2021/08/06 14:23:33;;;;;;;6.87;6.37;;;;;;;;;;4990914;28;24421;-51
2021/08/06 14:25:58;;;;;;;6.90;6.40;;;;;;;;;;4991118;28;24748;-51
2021/08/06 14:28:23;;;;;;;6.20;5.80;;;;;;;;;;4991195;28;24413;-53
2021/08/06 14:30:49;;;;;;;6.20;5.80;;;;;;;;;;4990983;28;25017;-51
2021/08/06 14:33:14;;;;;;;5.90;5.50;;;;;;;;;;4991089;28;24389;-52
2021/08/06 14:35:39;;;;;;;5.90;5.40;;;;;;;;;;4990529;28;24520;-52
2021/08/06 14:38:04;;;;;;;5.40;5.00;;;;;;;;;;4990772;28;24421;-52